createdAt,value
2023-08-11T00:01:21.874Z,18.00
2023-08-11T00:04:07.632Z,18.00
2023-08-11T00:06:53.880Z,18.00
2023-08-11T00:09:39.692Z,17.90
2023-08-11T00:12:24.960Z,17.90
2023-08-11T00:15:10.974Z,17.90
2023-08-11T00:18:02.880Z,17.80
2023-08-11T00:20:48.094Z,17.80
2023-08-11T00:23:33.572Z,17.80
2023-08-11T00:26:19.293Z,17.80
2023-08-11T00:29:05.894Z,17.80
2023-08-11T00:31:51.429Z,17.80
2023-08-11T00:34:37.012Z,17.70
2023-08-11T00:37:22.333Z,17.60
2023-08-11T00:40:09.662Z,17.60
2023-08-11T00:42:54.932Z,17.60
2023-08-11T00:45:45.797Z,17.60
2023-08-11T00:48:30.926Z,17.60
2023-08-11T00:51:16.626Z,17.50
2023-08-11T00:54:02.495Z,17.50
2023-08-11T00:56:49.181Z,17.40
2023-08-11T00:59:34.506Z,17.50
2023-08-11T01:02:19.848Z,17.40
2023-08-11T01:05:06.751Z,17.40
2023-08-11T01:08:25.425Z,17.30
2023-08-11T01:11:29.075Z,17.30
2023-08-11T01:14:28.967Z,17.40
2023-08-11T01:17:17.497Z,17.30
2023-08-11T01:20:09.554Z,17.30
2023-08-11T01:23:01.115Z,17.30
2023-08-11T01:25:47.983Z,17.20
2023-08-11T01:28:35.614Z,17.20
2023-08-11T01:31:21.189Z,17.20
2023-08-11T01:34:06.754Z,17.10
2023-08-11T01:37:01.331Z,17.20
2023-08-11T01:39:46.592Z,17.00
2023-08-11T01:42:35.540Z,16.90
2023-08-11T01:45:24.007Z,17.00
2023-08-11T01:48:11.475Z,17.00
2023-08-11T01:50:57.025Z,17.00
2023-08-11T01:53:43.037Z,16.90
2023-08-11T01:56:29.197Z,17.00
2023-08-11T01:59:16.463Z,17.00
2023-08-11T02:02:01.854Z,16.90
2023-08-11T02:04:47.369Z,16.80
2023-08-11T02:07:33.384Z,16.80
2023-08-11T02:10:18.580Z,16.90
2023-08-11T02:13:04.049Z,17.00
2023-08-11T02:15:49.830Z,17.00
2023-08-11T02:18:35.244Z,16.90
2023-08-11T02:21:20.552Z,16.90
2023-08-11T02:24:06.428Z,16.90
2023-08-11T02:26:52.362Z,16.80
2023-08-11T02:29:38.165Z,16.80
2023-08-11T02:32:23.661Z,16.80
2023-08-11T02:35:10.930Z,16.80
2023-08-11T02:37:56.398Z,16.70
2023-08-11T02:40:41.859Z,16.70
2023-08-11T02:43:28.285Z,16.70
2023-08-11T02:46:13.478Z,16.60
2023-08-11T02:48:58.796Z,16.70
2023-08-11T02:51:45.285Z,16.60
2023-08-11T02:54:30.824Z,16.60
2023-08-11T02:57:16.367Z,16.50
2023-08-11T03:00:03.328Z,16.50
2023-08-11T03:02:49.152Z,16.50
2023-08-11T03:05:34.767Z,16.40
2023-08-11T03:08:20.101Z,16.30
2023-08-11T03:11:05.525Z,16.30
2023-08-11T03:13:51.058Z,16.40
2023-08-11T03:16:37.080Z,16.40
2023-08-11T03:19:22.480Z,16.40
2023-08-11T03:22:08.242Z,16.40
2023-08-11T03:24:53.553Z,16.30
2023-08-11T03:27:44.365Z,16.40
2023-08-11T03:30:30.680Z,16.40
2023-08-11T03:33:18.639Z,16.30
2023-08-11T03:36:04.121Z,16.30
2023-08-11T03:38:49.729Z,16.30
2023-08-11T03:41:35.173Z,16.30
2023-08-11T03:44:20.650Z,16.30
2023-08-11T03:47:06.651Z,16.20
2023-08-11T03:49:51.995Z,16.10
2023-08-11T03:52:38.164Z,16.10
2023-08-11T03:55:23.855Z,16.10
2023-08-11T03:58:09.223Z,16.10
2023-08-11T04:00:55.995Z,16.00
2023-08-11T04:03:41.649Z,16.00
2023-08-11T04:06:33.287Z,15.90
2023-08-11T04:09:19.006Z,15.80
2023-08-11T04:12:04.724Z,15.90
2023-08-11T04:14:50.164Z,15.90
2023-08-11T04:17:37.802Z,15.90
2023-08-11T04:20:23.639Z,15.90
2023-08-11T04:23:09.156Z,15.90
2023-08-11T04:25:55.000Z,15.80
2023-08-11T04:28:42.590Z,15.80
2023-08-11T04:31:28.074Z,15.90
2023-08-11T04:34:15.108Z,15.90
2023-08-11T04:37:01.640Z,15.90
2023-08-11T04:39:48.233Z,15.90
2023-08-11T04:42:33.925Z,15.90
2023-08-11T04:45:19.498Z,16.00
2023-08-11T04:48:05.123Z,16.00
2023-08-11T04:50:52.435Z,15.90
2023-08-11T04:53:38.063Z,15.90
2023-08-11T04:56:23.766Z,15.90
2023-08-11T04:59:08.952Z,16.00
2023-08-11T05:01:56.438Z,16.00
2023-08-11T05:04:41.821Z,16.00
2023-08-11T05:07:27.257Z,15.90
2023-08-11T05:10:13.132Z,16.00
2023-08-11T05:12:58.365Z,16.00
2023-08-11T05:15:43.773Z,16.10
2023-08-11T05:18:37.937Z,16.10
2023-08-11T05:21:28.451Z,16.10
2023-08-11T05:24:13.966Z,16.00
2023-08-11T05:26:59.433Z,16.10
2023-08-11T05:29:47.616Z,16.10
2023-08-11T05:32:32.890Z,16.10
2023-08-11T05:35:18.459Z,16.00
2023-08-11T05:38:04.164Z,16.10
2023-08-11T05:40:50.739Z,16.10
2023-08-11T05:43:37.468Z,16.20
2023-08-11T05:46:22.759Z,16.20
2023-08-11T05:49:08.270Z,16.20
2023-08-11T05:51:53.655Z,16.20
2023-08-11T05:54:38.980Z,16.30
2023-08-11T05:57:24.393Z,16.30
2023-08-11T06:00:10.592Z,16.30
2023-08-11T06:02:57.362Z,16.40
2023-08-11T06:05:42.986Z,16.30
2023-08-11T06:08:29.502Z,16.50
2023-08-11T06:11:14.924Z,16.50
2023-08-11T06:14:00.522Z,16.50
2023-08-11T06:16:46.192Z,16.60
2023-08-11T06:19:31.646Z,16.60
2023-08-11T06:22:17.337Z,16.60
2023-08-11T06:25:02.775Z,16.60
2023-08-11T06:27:48.087Z,16.60
2023-08-11T06:30:33.812Z,16.70
2023-08-11T06:33:19.438Z,16.70
2023-08-11T06:36:05.128Z,16.80
2023-08-11T06:38:50.951Z,16.80
2023-08-11T06:41:36.150Z,16.90
2023-08-11T06:44:21.466Z,16.90
2023-08-11T06:47:07.124Z,16.90
2023-08-11T06:49:53.053Z,17.00
2023-08-11T06:52:39.269Z,17.10
2023-08-11T06:55:25.053Z,17.20
2023-08-11T06:58:10.734Z,17.20
2023-08-11T07:00:56.324Z,17.30
2023-08-11T07:03:42.953Z,17.30
2023-08-11T07:06:27.918Z,17.30
2023-08-11T07:09:13.442Z,17.40
2023-08-11T07:11:59.656Z,17.40
2023-08-11T07:14:45.894Z,17.60
2023-08-11T07:17:31.844Z,17.60
2023-08-11T07:20:17.203Z,17.60
2023-08-11T07:23:02.716Z,17.80
2023-08-11T07:25:48.402Z,17.80
2023-08-11T07:28:33.987Z,17.90
2023-08-11T07:31:19.541Z,18.10
2023-08-11T07:34:04.999Z,18.30
2023-08-11T07:36:50.771Z,18.40
2023-08-11T07:39:36.146Z,18.60
2023-08-11T07:42:21.699Z,18.70
2023-08-11T07:45:07.937Z,18.80
2023-08-11T07:47:53.162Z,18.80
2023-08-11T07:50:39.025Z,18.90
2023-08-11T07:53:24.431Z,18.90
2023-08-11T07:56:09.734Z,18.90
2023-08-11T07:58:55.288Z,19.10
2023-08-11T08:01:40.803Z,19.30
2023-08-11T08:04:26.255Z,19.20
2023-08-11T08:07:12.070Z,19.30
2023-08-11T08:09:57.687Z,19.40
2023-08-11T08:12:46.863Z,19.60
2023-08-11T08:15:32.549Z,19.80
2023-08-11T08:18:17.991Z,19.90
2023-08-11T08:21:03.596Z,20.00
2023-08-11T08:23:49.557Z,20.10
2023-08-11T08:26:36.374Z,20.30
2023-08-11T08:29:22.145Z,20.50
2023-08-11T08:32:07.582Z,20.40
2023-08-11T08:34:53.288Z,20.50
2023-08-11T08:37:38.766Z,20.60
2023-08-11T08:40:24.236Z,20.80
2023-08-11T08:43:10.008Z,21.00
2023-08-11T08:45:57.747Z,21.30
2023-08-11T08:49:18.584Z,21.40
2023-08-11T08:52:06.182Z,21.70
2023-08-11T08:54:52.416Z,21.70
2023-08-11T08:57:38.107Z,21.90
2023-08-11T09:00:24.190Z,22.30
2023-08-11T09:03:09.593Z,22.50
2023-08-11T09:05:55.390Z,22.50
2023-08-11T09:08:41.065Z,22.40
2023-08-11T09:11:27.464Z,22.60
2023-08-11T09:14:12.838Z,22.80
2023-08-11T09:17:01.047Z,22.70
2023-08-11T09:19:52.152Z,22.90
2023-08-11T09:22:39.342Z,23.20
2023-08-11T09:25:25.134Z,23.40
2023-08-11T09:28:10.530Z,23.30
2023-08-11T09:30:56.296Z,23.50
2023-08-11T09:33:42.264Z,23.60
2023-08-11T09:36:27.495Z,23.90
2023-08-11T09:39:13.269Z,24.20
2023-08-11T09:41:58.834Z,24.30
2023-08-11T09:44:45.153Z,24.30
2023-08-11T09:47:30.462Z,24.40
2023-08-11T09:50:16.349Z,24.50
2023-08-11T09:53:05.631Z,24.80
2023-08-11T09:55:55.504Z,24.90
2023-08-11T09:58:42.128Z,25.00
2023-08-11T10:01:29.912Z,25.30
2023-08-11T10:04:38.478Z,25.20
2023-08-11T10:07:38.330Z,25.70
2023-08-11T10:10:24.654Z,25.80
2023-08-11T10:13:15.431Z,25.60
2023-08-11T10:16:01.554Z,25.40
2023-08-11T10:18:47.517Z,25.80
2023-08-11T10:21:33.066Z,25.90
2023-08-11T10:24:19.812Z,26.00
2023-08-11T10:27:08.814Z,26.20
2023-08-11T10:29:56.292Z,26.10
2023-08-11T10:32:41.939Z,26.20
2023-08-11T10:35:33.884Z,26.20
2023-08-11T10:38:30.482Z,26.30
2023-08-11T10:41:19.493Z,26.70
2023-08-11T10:44:05.863Z,27.10
2023-08-11T10:46:52.908Z,27.40
2023-08-11T10:49:42.943Z,27.80
2023-08-11T10:52:30.816Z,27.30
2023-08-11T10:55:16.444Z,27.00
2023-08-11T10:58:17.920Z,26.80
2023-08-11T11:01:03.114Z,27.20
2023-08-11T11:03:50.664Z,27.20
2023-08-11T11:06:37.245Z,27.70
2023-08-11T11:09:23.131Z,27.60
2023-08-11T11:12:09.443Z,27.70
2023-08-11T11:14:55.058Z,27.80
2023-08-11T11:17:40.682Z,27.60
2023-08-11T11:20:27.014Z,28.00
2023-08-11T11:23:12.776Z,28.50
2023-08-11T11:25:57.961Z,28.80
2023-08-11T11:28:43.444Z,29.20
2023-08-11T11:31:32.186Z,29.30
2023-08-11T11:34:18.693Z,29.40
2023-08-11T11:37:04.574Z,29.00
2023-08-11T11:39:49.659Z,29.20
2023-08-11T11:42:39.096Z,29.40
2023-08-11T11:45:25.226Z,29.60
2023-08-11T11:48:10.981Z,29.90
2023-08-11T11:50:57.365Z,30.20
2023-08-11T11:53:44.627Z,30.20
2023-08-11T11:56:31.759Z,30.00
2023-08-11T11:59:18.151Z,29.40
2023-08-11T12:02:04.965Z,29.80
2023-08-11T12:04:52.107Z,29.70
2023-08-11T12:07:40.572Z,29.90
2023-08-11T12:10:33.980Z,30.10
2023-08-11T12:13:19.306Z,30.10
2023-08-11T12:16:06.144Z,30.20
2023-08-11T12:18:51.356Z,30.40
2023-08-11T12:21:37.355Z,30.30
2023-08-11T12:24:23.938Z,30.20
2023-08-11T12:27:10.169Z,30.30
2023-08-11T12:29:55.969Z,30.30
2023-08-11T12:32:41.737Z,30.40
2023-08-11T12:35:26.845Z,30.40
2023-08-11T12:38:13.873Z,30.40
2023-08-11T12:40:59.267Z,30.30
2023-08-11T12:43:44.633Z,30.50
2023-08-11T12:46:30.426Z,30.50
2023-08-11T12:49:16.128Z,30.60
2023-08-11T12:52:01.648Z,30.70
2023-08-11T12:54:47.158Z,30.60
2023-08-11T12:57:33.306Z,30.60
2023-08-11T13:00:21.756Z,30.50
2023-08-11T13:03:07.378Z,30.50
2023-08-11T13:05:52.736Z,30.30
2023-08-11T13:08:38.140Z,30.40
2023-08-11T13:11:24.058Z,30.10
2023-08-11T13:14:09.499Z,30.30
2023-08-11T13:16:55.114Z,30.50
2023-08-11T13:19:40.853Z,30.90
2023-08-11T13:22:26.103Z,30.90
2023-08-11T13:25:12.252Z,31.20
2023-08-11T13:27:57.832Z,31.10
2023-08-11T13:30:43.739Z,31.40
2023-08-11T13:33:29.301Z,31.20
2023-08-11T13:36:16.787Z,31.20
2023-08-11T13:39:02.259Z,31.00
2023-08-11T13:41:48.483Z,31.20
2023-08-11T13:44:33.742Z,31.50
2023-08-11T13:47:19.459Z,31.70
2023-08-11T13:50:05.286Z,31.40
2023-08-11T13:52:50.893Z,31.10
2023-08-11T13:55:36.793Z,31.10
2023-08-11T13:58:22.111Z,31.00
2023-08-11T14:01:07.741Z,30.90
2023-08-11T14:03:53.232Z,31.10
2023-08-11T14:06:38.889Z,30.90
2023-08-11T14:09:24.429Z,30.90
2023-08-11T14:12:10.110Z,31.10
2023-08-11T14:14:55.532Z,32.00
2023-08-11T14:17:41.380Z,32.80
2023-08-11T14:20:26.794Z,32.60
2023-08-11T14:23:12.291Z,31.70
2023-08-11T14:25:57.699Z,31.30
2023-08-11T14:28:43.316Z,31.50
2023-08-11T14:31:28.724Z,31.50
2023-08-11T14:34:14.253Z,31.70
2023-08-11T14:36:59.772Z,31.60
2023-08-11T14:39:46.234Z,31.20
2023-08-11T14:42:31.387Z,31.40
2023-08-11T14:45:16.985Z,31.60
2023-08-11T14:48:03.499Z,31.70
2023-08-11T14:50:48.938Z,31.50
2023-08-11T14:53:34.423Z,31.90
2023-08-11T14:56:20.007Z,32.30
2023-08-11T14:59:05.490Z,32.40
2023-08-11T15:01:52.342Z,32.40
2023-08-11T15:04:37.981Z,31.90
2023-08-11T15:07:23.128Z,31.70
2023-08-11T15:10:09.161Z,31.80
2023-08-11T15:12:54.272Z,32.10
2023-08-11T15:15:39.699Z,32.00
2023-08-11T15:18:30.573Z,32.20
2023-08-11T15:21:15.796Z,32.00
2023-08-11T15:24:01.380Z,31.90
2023-08-11T15:26:47.035Z,31.70
2023-08-11T15:29:32.497Z,31.60
2023-08-11T15:32:17.916Z,31.50
2023-08-11T15:35:04.175Z,31.90
2023-08-11T15:37:49.398Z,31.90
2023-08-11T15:40:34.878Z,32.00
2023-08-11T15:43:20.447Z,31.70
2023-08-11T15:46:06.090Z,31.70
2023-08-11T15:48:54.542Z,31.40
2023-08-11T15:51:39.720Z,31.20
2023-08-11T15:54:25.302Z,31.30
2023-08-11T15:57:10.669Z,31.20
2023-08-11T15:59:56.206Z,31.60
2023-08-11T16:02:41.750Z,31.70
2023-08-11T16:05:27.126Z,31.50
2023-08-11T16:08:12.532Z,32.00
2023-08-11T16:10:57.976Z,32.00
2023-08-11T16:13:43.578Z,31.70
2023-08-11T16:16:29.055Z,31.90
2023-08-11T16:19:15.923Z,31.40
2023-08-11T16:22:01.586Z,31.20
2023-08-11T16:24:46.972Z,31.30
2023-08-11T16:27:34.341Z,31.30
2023-08-11T16:30:19.884Z,31.50
2023-08-11T16:33:05.414Z,31.50
2023-08-11T16:35:50.976Z,31.40
2023-08-11T16:38:36.182Z,31.20
2023-08-11T16:41:21.964Z,31.10
2023-08-11T16:44:09.576Z,31.00
2023-08-11T16:46:55.077Z,31.10
2023-08-11T16:49:40.326Z,30.70
2023-08-11T16:52:25.699Z,30.80
2023-08-11T16:55:11.190Z,31.00
2023-08-11T16:57:56.680Z,30.90
2023-08-11T17:00:43.277Z,31.00
2023-08-11T17:03:28.984Z,30.90
2023-08-11T17:06:20.029Z,30.80
2023-08-11T17:09:07.180Z,30.80
2023-08-11T17:11:52.619Z,30.60
2023-08-11T17:14:38.003Z,30.60
2023-08-11T17:17:23.372Z,30.60
2023-08-11T17:20:11.286Z,30.60
2023-08-11T17:22:56.484Z,30.60
2023-08-11T17:25:41.929Z,30.50
2023-08-11T17:28:27.569Z,30.50
2023-08-11T17:31:15.238Z,30.40
2023-08-11T17:34:00.647Z,30.40
2023-08-11T17:36:46.075Z,30.30
2023-08-11T17:39:32.044Z,30.20
2023-08-11T17:42:17.580Z,30.00
2023-08-11T17:45:03.464Z,29.80
2023-08-11T17:47:48.944Z,29.60
2023-08-11T17:50:35.205Z,29.40
2023-08-11T17:53:21.660Z,29.20
2023-08-11T17:56:07.119Z,29.10
2023-08-11T17:58:53.180Z,28.90
2023-08-11T18:01:38.870Z,28.70
2023-08-11T18:04:24.576Z,28.60
2023-08-11T18:07:10.306Z,28.30
2023-08-11T18:09:55.870Z,28.20
2023-08-11T18:12:41.388Z,28.10
2023-08-11T18:15:26.759Z,28.00
2023-08-11T18:18:12.252Z,28.00
2023-08-11T18:21:02.029Z,28.00
2023-08-11T18:23:47.856Z,27.90
2023-08-11T18:26:35.818Z,27.70
2023-08-11T18:29:21.417Z,27.50
2023-08-11T18:32:07.032Z,27.40
2023-08-11T18:34:52.588Z,27.30
2023-08-11T18:37:38.017Z,27.20
2023-08-11T18:40:23.487Z,27.30
2023-08-11T18:43:08.963Z,27.10
2023-08-11T18:45:54.329Z,27.00
2023-08-11T18:48:39.781Z,26.90
2023-08-11T18:51:25.311Z,26.80
2023-08-11T18:54:10.958Z,26.60
2023-08-11T18:56:56.301Z,26.50
2023-08-11T18:59:41.749Z,26.40
2023-08-11T19:02:27.258Z,26.20
2023-08-11T19:05:12.972Z,26.10
2023-08-11T19:07:58.212Z,26.10
2023-08-11T19:10:44.922Z,26.00
2023-08-11T19:13:30.643Z,25.90
2023-08-11T19:16:16.211Z,25.70
2023-08-11T19:19:01.370Z,25.70
2023-08-11T19:21:47.050Z,25.60
2023-08-11T19:24:32.613Z,25.60
2023-08-11T19:27:19.188Z,25.60
2023-08-11T19:30:06.339Z,25.50
2023-08-11T19:32:52.083Z,25.40
2023-08-11T19:35:37.458Z,25.40
2023-08-11T19:38:23.059Z,25.30
2023-08-11T19:41:10.270Z,25.20
2023-08-11T19:43:57.424Z,25.20
2023-08-11T19:46:42.977Z,25.10
2023-08-11T19:49:28.379Z,25.10
2023-08-11T19:52:14.232Z,25.00
2023-08-11T19:54:59.781Z,25.00
2023-08-11T19:57:45.723Z,24.90
2023-08-11T20:00:32.511Z,24.80
2023-08-11T20:03:18.008Z,24.70
2023-08-11T20:06:03.800Z,24.60
2023-08-11T20:08:49.182Z,24.60
2023-08-11T20:11:35.183Z,24.40
2023-08-11T20:14:20.809Z,24.30
2023-08-11T20:17:06.302Z,24.30
2023-08-11T20:19:51.638Z,24.30
2023-08-11T20:22:37.250Z,24.20
2023-08-11T20:25:22.738Z,24.10
2023-08-11T20:28:10.355Z,24.10
2023-08-11T20:31:01.280Z,24.10
2023-08-11T20:33:46.682Z,24.00
2023-08-11T20:36:32.201Z,23.90
2023-08-11T20:39:17.742Z,23.90
2023-08-11T20:42:03.634Z,23.80
2023-08-11T20:44:52.824Z,23.80
2023-08-11T20:47:38.181Z,23.70
2023-08-11T20:50:23.868Z,23.70
2023-08-11T20:53:09.369Z,23.70
2023-08-11T20:55:54.879Z,23.60
2023-08-11T20:58:40.485Z,23.50
2023-08-11T21:01:26.023Z,23.50
2023-08-11T21:04:12.129Z,23.50
2023-08-11T21:06:57.823Z,23.50
2023-08-11T21:09:43.491Z,23.40
2023-08-11T21:12:28.962Z,23.40
2023-08-11T21:15:14.711Z,23.30
2023-08-11T21:17:59.964Z,23.20
2023-08-11T21:20:45.386Z,23.20
2023-08-11T21:23:31.040Z,23.20
2023-08-11T21:26:16.389Z,23.20
2023-08-11T21:29:01.872Z,23.20
2023-08-11T21:31:47.459Z,23.10
2023-08-11T21:34:33.859Z,23.10
2023-08-11T21:37:19.851Z,23.10
2023-08-11T21:42:51.169Z,23.00
2023-08-11T21:45:36.685Z,23.00
2023-08-11T21:48:22.066Z,22.90
2023-08-11T21:51:07.654Z,22.90
2023-08-11T21:53:53.082Z,22.80
2023-08-11T21:56:38.545Z,22.80
2023-08-11T21:59:23.990Z,22.70
2023-08-11T22:02:10.057Z,22.80
2023-08-11T22:04:58.859Z,22.80
2023-08-11T22:07:44.285Z,23.00
2023-08-11T22:10:29.961Z,23.00
2023-08-11T22:13:15.601Z,23.00
2023-08-11T22:16:01.014Z,23.00
2023-08-11T22:18:46.572Z,23.00
2023-08-11T22:21:31.936Z,22.90
2023-08-11T22:24:21.577Z,22.90
2023-08-11T22:27:16.249Z,22.90
2023-08-11T22:30:01.604Z,22.90
2023-08-11T22:32:47.128Z,22.90
2023-08-11T22:35:33.095Z,22.90
2023-08-11T22:38:18.516Z,22.80
2023-08-11T22:41:04.021Z,22.80
2023-08-11T22:43:49.533Z,22.80
2023-08-11T22:46:35.056Z,22.80
2023-08-11T22:49:20.464Z,22.80
2023-08-11T22:52:06.297Z,22.80
2023-08-11T22:54:51.454Z,22.80
2023-08-11T22:57:37.008Z,22.80
2023-08-11T23:00:22.520Z,22.80
2023-08-11T23:03:08.237Z,22.80
2023-08-11T23:05:53.422Z,22.70
2023-08-11T23:08:38.765Z,22.70
2023-08-11T23:11:24.293Z,22.70
2023-08-11T23:14:09.813Z,22.70
2023-08-11T23:16:55.204Z,22.70
2023-08-11T23:19:40.639Z,22.60
2023-08-11T23:22:26.383Z,22.60
2023-08-11T23:25:12.074Z,22.60
2023-08-11T23:27:57.545Z,22.60
2023-08-11T23:30:43.162Z,22.60
2023-08-11T23:33:28.566Z,22.60
2023-08-11T23:36:14.081Z,22.50
2023-08-11T23:38:59.311Z,22.50
2023-08-11T23:41:44.984Z,22.60
2023-08-11T23:44:30.507Z,22.60
2023-08-11T23:47:16.218Z,22.50
2023-08-11T23:50:02.026Z,22.50
2023-08-11T23:52:47.261Z,22.50
2023-08-11T23:55:32.711Z,22.40
2023-08-11T23:58:18.080Z,22.40
